Time;durP1;ratioP1;P1;durP2;ratioP2;P2;SDS_P1;SDS_P2;PMS_P1;PMS_P2;Temp;Humidity;BMP_temperature;BMP_pressure;BME280_temperature;BME280_humidity;BME280_pressure;Samples;Min_cycle;Max_cycle;Signal;HPM_P1;HPM_P2
2023/03/06 00:00:50;;;;;;;0.50;0.10;;;5.60;99.90;;;;;;4993161;28;20459;-70
2023/03/06 00:03:19;;;;;;;4.73;4.43;;;5.60;99.90;;;;;;4993167;28;20449;-71
2023/03/06 00:05:46;;;;;;;1.67;1.57;;;5.60;99.90;;;;;;4992591;28;20955;-70
2023/03/06 00:08:14;;;;;;;0.50;0.10;;;5.60;99.90;;;;;;4995918;28;20479;-70
2023/03/06 00:10:42;;;;;;;0.60;0.10;;;5.60;99.90;;;;;;4996570;28;20444;-71
2023/03/06 00:13:13;;;;;;;0.50;0.10;;;5.50;99.90;;;;;;4997149;28;20499;-73
2023/03/06 00:15:41;;;;;;;0.50;0.10;;;5.60;99.90;;;;;;4996879;28;20524;-72
2023/03/06 00:18:11;;;;;;;0.50;0.10;;;5.60;99.90;;;;;;4997397;28;20520;-73
2023/03/06 00:20:40;;;;;;;0.50;0.10;;;5.60;99.90;;;;;;4996652;28;20449;-72
2023/03/06 00:23:08;;;;;;;0.50;0.10;;;5.50;99.90;;;;;;4996595;28;20471;-74
2023/03/06 00:25:37;;;;;;;0.50;0.10;;;5.60;99.90;;;;;;4996569;28;20454;-71
2023/03/06 00:28:05;;;;;;;0.50;0.10;;;5.50;99.90;;;;;;4996672;28;20476;-71
2023/03/06 00:30:33;;;;;;;0.50;0.10;;;5.60;99.90;;;;;;4996873;28;20452;-71
2023/03/06 00:33:01;;;;;;;0.50;0.10;;;5.50;99.90;;;;;;4997046;28;20953;-71
2023/03/06 00:35:30;;;;;;;0.50;0.10;;;5.50;99.90;;;;;;4996318;28;20445;-72
2023/03/06 00:37:58;;;;;;;0.50;0.10;;;5.50;99.90;;;;;;4997057;28;20550;-72
2023/03/06 00:40:27;;;;;;;0.50;0.30;;;5.50;99.90;;;;;;4996232;28;20866;-74
2023/03/06 00:42:55;;;;;;;1.33;1.23;;;5.50;99.90;;;;;;4978106;28;20500;-70
2023/03/06 00:45:22;;;;;;;0.50;0.10;;;5.50;99.90;;;;;;4977936;28;21007;-72
2023/03/06 00:47:50;;;;;;;0.50;0.10;;;5.50;99.90;;;;;;4976963;28;20488;-73
2023/03/06 00:50:18;;;;;;;0.50;0.10;;;5.60;99.90;;;;;;4976269;28;20444;-74
2023/03/06 00:52:47;;;;;;;0.60;0.20;;;5.60;99.90;;;;;;4976312;28;20924;-72
2023/03/06 00:55:15;;;;;;;0.50;0.10;;;5.60;99.90;;;;;;4986625;28;20946;-72
2023/03/06 00:57:43;;;;;;;0.50;0.10;;;5.60;99.90;;;;;;4997589;28;20470;-69
2023/03/06 05:02:16;;;;;;;0.50;0.10;;;5.30;99.90;;;;;;5300941;23;21061;-76
2023/03/06 05:04:44;;;;;;;1.33;1.20;;;5.20;99.90;;;;;;5010804;28;20443;-75
2023/03/06 05:07:11;;;;;;;0.50;0.17;;;5.10;99.90;;;;;;5028219;28;20997;-75
2023/03/06 05:09:39;;;;;;;0.80;0.50;;;5.00;99.90;;;;;;5027524;28;20842;-75
2023/03/06 05:12:07;;;;;;;0.60;0.40;;;4.80;99.90;;;;;;5024990;28;20477;-75
2023/03/06 05:14:35;;;;;;;1.03;0.57;;;4.80;99.90;;;;;;5016544;28;20446;-72
2023/03/06 05:17:03;;;;;;;1.57;1.43;;;4.70;99.90;;;;;;5018367;28;20467;-74
2023/03/06 05:19:32;;;;;;;1.13;0.77;;;4.60;99.90;;;;;;5018339;28;20447;-71
2023/03/06 05:22:00;;;;;;;0.53;0.30;;;4.60;99.90;;;;;;5018109;28;20522;-70
2023/03/06 05:24:28;;;;;;;0.80;0.77;;;4.60;99.90;;;;;;5015281;28;20458;-70
2023/03/06 05:26:56;;;;;;;0.50;0.10;;;4.50;99.90;;;;;;5015131;28;20455;-71
2023/03/06 05:29:24;;;;;;;0.50;0.10;;;4.50;99.90;;;;;;5014413;28;20478;-72
2023/03/06 05:31:52;;;;;;;3.80;3.50;;;4.60;99.90;;;;;;5014635;28;20466;-74
2023/03/06 05:34:20;;;;;;;3.40;3.20;;;4.60;99.90;;;;;;5014457;28;20490;-71
2023/03/06 05:36:49;;;;;;;0.50;0.10;;;4.60;99.90;;;;;;5014803;28;20504;-75
2023/03/06 05:39:17;;;;;;;0.50;0.10;;;4.50;99.90;;;;;;5014714;28;20442;-71
2023/03/06 05:41:45;;;;;;;0.50;0.10;;;4.50;99.90;;;;;;5014882;28;20468;-73
2023/03/06 05:44:12;;;;;;;0.50;0.30;;;4.50;99.90;;;;;;5014739;28;20518;-73
2023/03/06 05:46:40;;;;;;;0.50;0.10;;;4.50;99.90;;;;;;5014351;28;20446;-71
2023/03/06 05:49:08;;;;;;;0.50;0.10;;;4.50;99.90;;;;;;5014764;28;20503;-72
2023/03/06 05:51:36;;;;;;;0.50;0.10;;;4.60;99.90;;;;;;5014196;28;20493;-70
2023/03/06 05:54:05;;;;;;;0.50;0.10;;;4.60;99.90;;;;;;5014225;28;20455;-72
2023/03/06 05:56:33;;;;;;;0.70;0.43;;;4.70;99.90;;;;;;5015099;28;20454;-71
2023/03/06 05:59:01;;;;;;;1.13;0.60;;;4.80;99.90;;;;;;5011032;28;20459;-72
2023/03/06 06:01:29;;;;;;;0.50;0.10;;;4.80;99.90;;;;;;5014811;28;20835;-73
2023/03/06 06:03:57;;;;;;;0.50;0.20;;;;;;;;;;5025241;28;20456;-71
2023/03/06 06:06:25;;;;;;;0.50;0.10;;;4.80;99.90;;;;;;5037521;28;20940;-72
2023/03/06 06:08:53;;;;;;;0.50;0.10;;;4.80;99.90;;;;;;5038730;28;20458;-72
2023/03/06 06:11:22;;;;;;;0.50;0.10;;;4.80;99.90;;;;;;5034363;28;21046;-74
2023/03/06 06:13:50;;;;;;;0.50;0.30;;;;;;;;;;5024795;28;20443;-71
2023/03/06 06:16:18;;;;;;;0.50;0.10;;;4.80;99.90;;;;;;5014484;28;20454;-70
2023/03/06 06:18:46;;;;;;;0.50;0.10;;;4.80;99.90;;;;;;5033407;28;20451;-72
2023/03/06 06:21:15;;;;;;;1.70;1.60;;;4.90;99.90;;;;;;5033837;28;20894;-72
2023/03/06 06:23:43;;;;;;;0.80;0.67;;;4.80;99.90;;;;;;5035899;28;20666;-70
2023/03/06 06:26:10;;;;;;;0.50;0.20;;;4.70;99.90;;;;;;5039512;28;20452;-71
2023/03/06 06:28:40;;;;;;;1.87;1.30;;;4.70;99.90;;;;;;5025692;28;20448;-72
2023/03/06 06:31:09;;;;;;;0.83;0.57;;;4.60;99.90;;;;;;5019795;28;20499;-71
2023/03/06 06:33:37;;;;;;;0.50;0.10;;;4.60;99.90;;;;;;5019608;28;20447;-71
2023/03/06 06:36:05;;;;;;;0.77;0.77;;;4.60;99.90;;;;;;5016679;28;20447;-71
2023/03/06 06:38:33;;;;;;;3.20;1.40;;;4.60;99.90;;;;;;5014984;28;20448;-70
2023/03/06 06:41:03;;;;;;;0.50;0.10;;;4.90;99.90;;;;;;5018880;28;20532;-70
2023/03/06 06:43:52;;;;;;;0.60;0.40;;;4.60;99.90;;;;;;5006458;28;20489;-72
2023/03/06 06:46:20;;;;;;;0.50;0.10;;;4.60;99.90;;;;;;5009063;28;20437;-72
2023/03/06 06:49:09;;;;;;;0.50;0.20;;;;;;;;;;4994652;28;20496;-72
2023/03/06 06:51:36;;;;;;;0.50;0.10;;;4.70;99.90;;;;;;4995041;28;20471;-72
2023/03/06 06:54:04;;;;;;;0.50;0.10;;;4.70;99.90;;;;;;5013346;28;20536;-72
2023/03/06 06:56:32;;;;;;;0.50;0.10;;;4.80;99.90;;;;;;5014071;28;20438;-71
2023/03/06 06:59:03;;;;;;;0.50;0.10;;;4.90;99.90;;;;;;5033374;28;20864;-72
2023/03/06 07:01:43;;;;;;;0.97;0.70;;;5.00;99.90;;;;;;5012514;28;20492;-75
2023/03/06 07:04:12;;;;;;;0.50;0.10;;;5.00;99.90;;;;;;5013108;28;20442;-74
2023/03/06 07:06:40;;;;;;;0.50;0.10;;;5.00;99.90;;;;;;5013370;28;20536;-74
2023/03/06 07:09:08;;;;;;;0.50;0.10;;;5.00;99.90;;;;;;5012894;28;20538;-74
2023/03/06 07:11:37;;;;;;;0.50;0.10;;;5.00;99.90;;;;;;5012836;28;20486;-73
2023/03/06 07:14:07;;;;;;;0.50;0.10;;;5.00;99.90;;;;;;5009061;28;20455;-74
2023/03/06 07:16:34;;;;;;;0.50;0.10;;;5.10;99.90;;;;;;5031208;28;20449;-75
2023/03/06 07:19:03;;;;;;;1.43;1.03;;;5.10;99.90;;;;;;5016306;28;20469;-73
2023/03/06 07:21:30;;;;;;;0.60;0.60;;;5.10;99.90;;;;;;5012872;28;20534;-74
2023/03/06 07:23:58;;;;;;;1.10;0.93;;;5.00;99.90;;;;;;5014688;28;20450;-73
2023/03/06 07:26:27;;;;;;;0.50;0.30;;;4.90;99.90;;;;;;5015843;28;20456;-73
2023/03/06 07:28:55;;;;;;;1.20;1.10;;;4.90;99.90;;;;;;5013557;28;20451;-72
2023/03/06 07:31:26;;;;;;;0.50;0.10;;;4.90;99.90;;;;;;5012692;28;20490;-73
2023/03/06 07:33:55;;;;;;;0.50;0.10;;;4.90;99.90;;;;;;5016406;28;20450;-75
2023/03/06 07:36:23;;;;;;;0.60;0.40;;;4.90;99.90;;;;;;5022770;28;20458;-74
2023/03/06 07:38:51;;;;;;;0.50;0.10;;;4.90;99.90;;;;;;5012549;28;20455;-72
2023/03/06 07:41:19;;;;;;;0.50;0.10;;;4.90;99.90;;;;;;5012520;28;20493;-73
2023/03/06 07:43:49;;;;;;;0.50;0.10;;;4.90;99.90;;;;;;5013806;28;20447;-74
2023/03/06 07:46:18;;;;;;;0.50;0.10;;;5.00;99.90;;;;;;5011585;28;20456;-74
2023/03/06 07:48:47;;;;;;;3.27;3.07;;;5.10;99.90;;;;;;5013999;28;20535;-73
2023/03/06 07:51:17;;;;;;;0.60;0.37;;;5.10;99.90;;;;;;5013292;28;20496;-73
2023/03/06 07:53:45;;;;;;;0.50;0.10;;;5.10;99.90;;;;;;5012620;28;20447;-73
2023/03/06 07:56:14;;;;;;;0.70;0.57;;;5.10;99.90;;;;;;5012545;28;20443;-73
2023/03/06 07:58:44;;;;;;;0.80;0.53;;;5.10;99.90;;;;;;5016949;28;20521;-72
2023/03/06 08:01:14;;;;;;;1.80;0.50;;;5.20;99.90;;;;;;5028658;28;20477;-74
2023/03/06 08:03:43;;;;;;;1.27;1.17;;;5.20;99.90;;;;;;5032194;28;20566;-73
2023/03/06 08:06:14;;;;;;;0.50;0.10;;;5.10;99.90;;;;;;5032578;28;20442;-72
2023/03/06 08:08:44;;;;;;;0.97;0.60;;;5.20;99.90;;;;;;5032607;28;20439;-72
2023/03/06 08:11:14;;;;;;;0.50;0.10;;;6.00;99.90;;;;;;5025410;28;20556;-74
2023/03/06 08:13:42;;;;;;;1.20;0.77;;;5.20;99.90;;;;;;5028952;28;20478;-74
2023/03/06 08:16:11;;;;;;;0.60;0.30;;;5.30;99.90;;;;;;5032094;28;20457;-74
2023/03/06 08:18:39;;;;;;;0.70;0.30;;;5.30;99.90;;;;;;5032194;28;20542;-73
2023/03/06 08:21:08;;;;;;;0.50;0.10;;;5.40;99.90;;;;;;5032161;28;20467;-72
2023/03/06 08:23:38;;;;;;;6.20;3.10;;;5.40;99.90;;;;;;5023140;28;20515;-74
2023/03/06 08:26:07;;;;;;;1.80;1.70;;;5.40;99.90;;;;;;5011547;28;20447;-72
2023/03/06 08:28:35;;;;;;;4.67;1.80;;;5.30;99.90;;;;;;5021752;28;20453;-75
2023/03/06 08:31:09;;;;;;;2.33;1.97;;;5.30;99.90;;;;;;5019343;28;20490;-74
2023/03/06 08:33:37;;;;;;;0.50;0.10;;;5.30;99.90;;;;;;5015982;28;20810;-74
2023/03/06 08:36:05;;;;;;;0.50;0.10;;;5.30;99.90;;;;;;5015158;28;20945;-74
2023/03/06 08:38:33;;;;;;;1.57;1.40;;;5.30;99.90;;;;;;5015293;28;20447;-76
2023/03/06 08:41:02;;;;;;;3.20;0.83;;;5.20;99.90;;;;;;5015335;28;20536;-74
2023/03/06 08:43:30;;;;;;;1.17;1.07;;;5.20;99.90;;;;;;5015499;28;21192;-79
2023/03/06 08:45:59;;;;;;;0.60;0.50;;;5.10;99.90;;;;;;5015306;28;20448;-75
2023/03/06 08:48:27;;;;;;;6.73;2.13;;;5.10;99.90;;;;;;5015487;28;20533;-74
2023/03/06 08:50:55;;;;;;;3.83;3.50;;;5.30;99.90;;;;;;5010173;28;20563;-74
2023/03/06 08:53:24;;;;;;;0.87;0.57;;;5.30;99.90;;;;;;5009937;28;21110;-73
2023/03/06 08:56:16;;;;;;;4.10;2.73;;;5.20;99.90;;;;;;5009495;28;20465;-72
2023/03/06 08:58:43;;;;;;;3.17;2.83;;;5.10;99.90;;;;;;5032024;28;20469;-71
2023/03/06 09:01:16;;;;;;;1.50;1.40;;;5.00;99.90;;;;;;5035853;28;20482;-74
2023/03/06 09:03:44;;;;;;;2.87;2.67;;;4.90;99.90;;;;;;5027811;28;20458;-75
2023/03/06 09:06:12;;;;;;;4.63;1.47;;;4.90;99.90;;;;;;5017827;28;20824;-75
2023/03/06 09:08:41;;;;;;;1.37;0.97;;;4.90;99.90;;;;;;5016844;28;20823;-75
2023/03/06 09:11:11;;;;;;;0.70;0.47;;;4.80;99.90;;;;;;5015871;28;20493;-72
2023/03/06 09:13:39;;;;;;;4.30;2.33;;;4.90;99.90;;;;;;5013416;28;20462;-74
2023/03/06 09:16:07;;;;;;;2.90;2.63;;;5.00;99.90;;;;;;5014833;28;20503;-76
2023/03/06 09:18:35;;;;;;;2.10;2.00;;;4.90;99.90;;;;;;5015187;28;21168;-76
2023/03/06 09:21:04;;;;;;;0.60;0.53;;;5.00;99.90;;;;;;5014869;28;20470;-75
2023/03/06 09:23:32;;;;;;;0.60;0.47;;;5.00;99.90;;;;;;5028893;28;20449;-74
2023/03/06 09:26:01;;;;;;;1.00;0.43;;;5.00;99.90;;;;;;5034376;28;20445;-74
2023/03/06 09:28:30;;;;;;;0.60;0.47;;;5.10;99.90;;;;;;5034543;28;20443;-77
2023/03/06 09:30:57;;;;;;;0.50;0.10;;;5.20;99.90;;;;;;5034268;28;20483;-75
2023/03/06 09:33:27;;;;;;;1.27;0.93;;;5.20;99.90;;;;;;5034539;28;21175;-77
2023/03/06 09:35:57;;;;;;;2.53;2.33;;;5.30;99.90;;;;;;5034826;28;20446;-76
2023/03/06 09:38:27;;;;;;;0.73;0.43;;;5.30;99.90;;;;;;5034946;28;20453;-75
2023/03/06 09:41:05;;;;;;;1.23;1.17;;;5.30;99.90;;;;;;5033349;28;20472;-75
2023/03/06 09:43:38;;;;;;;3.23;2.93;;;5.40;99.90;;;;;;5035492;28;20920;-75
2023/03/06 09:46:19;;;;;;;1.73;1.13;;;5.40;99.90;;;;;;5034803;28;20444;-76
2023/03/06 09:49:01;;;;;;;0.67;0.60;;;5.30;99.90;;;;;;5035294;28;20479;-75
2023/03/06 09:51:36;;;;;;;1.07;0.50;;;5.20;99.90;;;;;;5034751;28;20486;-73
2023/03/06 09:54:10;;;;;;;0.50;0.10;;;5.20;99.90;;;;;;5034585;28;20448;-75
2023/03/06 09:56:38;;;;;;;0.50;0.20;;;5.20;99.90;;;;;;5035751;28;20450;-76
2023/03/06 09:59:13;;;;;;;0.50;0.10;;;5.20;99.90;;;;;;5036092;28;20446;-76
2023/03/06 10:01:45;;;;;;;4.63;1.17;;;5.30;99.90;;;;;;5036543;28;20466;-74
2023/03/06 10:04:35;;;;;;;1.17;1.07;;;5.40;99.90;;;;;;5035645;28;21002;-75
2023/03/06 10:07:11;;;;;;;3.07;0.57;;;5.50;99.90;;;;;;5034474;28;20445;-75
2023/03/06 10:09:45;;;;;;;2.70;1.13;;;5.70;99.90;;;;;;5034004;28;20446;-75
2023/03/06 10:12:22;;;;;;;0.60;0.30;;;5.80;99.90;;;;;;5033641;28;20512;-74
2023/03/06 10:15:05;;;;;;;0.60;0.30;;;5.90;99.90;;;;;;5033148;28;20446;-74
2023/03/06 10:17:37;;;;;;;1.27;1.17;;;6.00;99.90;;;;;;5034058;28;21119;-76
2023/03/06 10:20:19;;;;;;;0.50;0.10;;;6.00;99.90;;;;;;5033677;28;20541;-75
2023/03/06 10:23:09;;;;;;;4.13;2.13;;;6.10;99.90;;;;;;5025796;28;20471;-73
2023/03/06 10:25:46;;;;;;;0.50;0.10;;;6.20;99.90;;;;;;5013503;28;20444;-75
2023/03/06 10:28:17;;;;;;;6.53;0.80;;;6.10;99.90;;;;;;5013628;28;20507;-77
2023/03/06 10:30:52;;;;;;;4.93;3.00;;;5.90;99.90;;;;;;5013125;28;20453;-76
2023/03/06 10:33:28;;;;;;;0.50;0.20;;;5.90;99.90;;;;;;5013429;28;20485;-75
2023/03/06 10:35:56;;;;;;;0.90;0.57;;;5.80;99.90;;;;;;5013214;28;20451;-74
2023/03/06 10:38:25;;;;;;;2.20;1.47;;;5.80;99.90;;;;;;5014017;28;20570;-76
2023/03/06 10:41:05;;;;;;;0.83;0.60;;;5.70;99.90;;;;;;5013644;28;20464;-76
2023/03/06 10:43:34;;;;;;;4.90;4.43;;;5.70;99.90;;;;;;5014177;28;20434;-76
2023/03/06 10:46:05;;;;;;;2.00;1.57;;;5.70;99.90;;;;;;5014560;28;20447;-75
2023/03/06 10:48:35;;;;;;;0.97;0.43;;;5.70;99.90;;;;;;5014065;28;20489;-77
2023/03/06 10:51:16;;;;;;;2.60;2.07;;;5.80;99.90;;;;;;5012806;28;20497;-77
2023/03/06 10:53:52;;;;;;;0.60;0.53;;;5.80;99.90;;;;;;5013314;28;20487;-76
2023/03/06 10:56:28;;;;;;;0.50;0.10;;;5.90;99.90;;;;;;5013288;28;20949;-75
2023/03/06 10:59:07;;;;;;;6.97;1.50;;;6.10;99.90;;;;;;5013269;28;20454;-75
2023/03/06 11:01:36;;;;;;;0.50;0.20;;;6.30;99.90;;;;;;5013277;28;20474;-76
2023/03/06 11:04:24;;;;;;;0.50;0.20;;;6.30;99.90;;;;;;5013240;28;20451;-76
2023/03/06 11:07:14;;;;;;;1.47;1.37;;;6.50;99.90;;;;;;5013299;28;20428;-74
2023/03/06 11:09:43;;;;;;;0.50;0.10;;;6.60;99.90;;;;;;5007963;28;20479;-77
2023/03/06 11:12:24;;;;;;;0.80;0.53;;;6.80;99.90;;;;;;5012778;28;20486;-76
2023/03/06 11:15:20;;;;;;;0.50;0.20;;;6.90;99.90;;;;;;5013229;28;20455;-77
2023/03/06 11:17:52;;;;;;;3.70;3.50;;;7.10;99.90;;;;;;5013032;28;20802;-74
2023/03/06 11:20:23;;;;;;;3.70;3.03;;;7.40;99.90;;;;;;4999354;28;20473;-76
2023/03/06 11:22:54;;;;;;;0.50;0.20;;;7.40;99.90;;;;;;5009436;28;20537;-73
2023/03/06 11:25:27;;;;;;;7.63;1.23;;;7.30;99.90;;;;;;5012968;28;20909;-76
2023/03/06 11:28:00;;;;;;;1.03;0.83;;;7.20;99.90;;;;;;5012757;28;20777;-75
2023/03/06 11:30:30;;;;;;;0.90;0.63;;;;;;;;;;5012920;28;20436;-76
2023/03/06 11:33:04;;;;;;;0.50;0.30;;;7.40;99.90;;;;;;5012788;28;20480;-76
2023/03/06 11:35:40;;;;;;;1.30;1.20;;;7.50;99.90;;;;;;5012973;28;20447;-75
2023/03/06 11:38:14;;;;;;;0.50;0.20;;;7.40;99.90;;;;;;5006546;28;20779;-74
2023/03/06 11:40:49;;;;;;;3.60;2.20;;;7.00;99.90;;;;;;5013160;28;20448;-76
2023/03/06 11:43:23;;;;;;;2.43;1.13;;;7.00;99.90;;;;;;5013482;28;20440;-75
2023/03/06 11:45:57;;;;;;;0.60;0.50;;;6.90;99.90;;;;;;5012728;28;20452;-74
2023/03/06 11:48:31;;;;;;;1.13;0.60;;;6.90;99.90;;;;;;5013342;28;20446;-76
2023/03/06 11:51:06;;;;;;;0.93;0.73;;;7.10;99.90;;;;;;5013484;28;20468;-77
2023/03/06 11:53:37;;;;;;;0.83;0.60;;;7.10;99.90;;;;;;5013372;28;20479;-75
2023/03/06 11:56:21;;;;;;;0.60;0.57;;;7.10;99.90;;;;;;5013962;28;20958;-76
2023/03/06 11:59:11;;;;;;;2.70;1.17;;;7.20;99.90;;;;;;5014761;28;20451;-76
2023/03/06 12:01:44;;;;;;;1.20;0.87;;;7.30;99.90;;;;;;5014099;28;20487;-76
2023/03/06 12:04:31;;;;;;;1.90;1.80;;;7.30;99.90;;;;;;5014076;28;20444;-75
2023/03/06 12:07:07;;;;;;;0.87;0.73;;;7.30;99.90;;;;;;5020210;28;20448;-77
2023/03/06 12:09:45;;;;;;;1.03;1.03;;;7.30;99.90;;;;;;5008537;28;20499;-77
2023/03/06 12:12:50;;;;;;;0.50;0.10;;;7.20;99.90;;;;;;5014496;28;20468;-74
2023/03/06 12:15:27;;;;;;;0.50;0.10;;;7.20;99.90;;;;;;4997966;28;21138;-73
2023/03/06 12:18:06;;;;;;;0.80;0.67;;;7.30;99.90;;;;;;5014209;28;20454;-75
2023/03/06 12:20:50;;;;;;;20.27;3.40;;;7.20;99.90;;;;;;5015301;28;20452;-74
2023/03/06 12:23:40;;;;;;;0.60;0.30;;;7.20;99.90;;;;;;5028969;28;20446;-75
2023/03/06 12:26:25;;;;;;;0.53;0.30;;;7.20;99.90;;;;;;5036342;28;20675;-75
2023/03/06 12:29:10;;;;;;;2.23;1.33;;;7.10;99.90;;;;;;5036661;28;20461;-74
2023/03/06 12:31:49;;;;;;;0.53;0.27;;;7.00;99.90;;;;;;5036896;28;20776;-75
2023/03/06 12:34:39;;;;;;;0.80;0.70;;;7.10;99.90;;;;;;5022322;28;20564;-75
2023/03/06 12:37:20;;;;;;;2.17;1.37;;;7.10;99.90;;;;;;5008941;28;20436;-76
2023/03/06 12:40:08;;;;;;;0.50;0.10;;;7.00;99.90;;;;;;5016255;28;20462;-74
2023/03/06 12:43:00;;;;;;;0.50;0.10;;;7.00;99.90;;;;;;5015825;28;20487;-75
2023/03/06 12:45:31;;;;;;;0.50;0.10;;;7.00;99.90;;;;;;5015788;28;20459;-76
2023/03/06 12:48:00;;;;;;;1.43;0.93;;;7.20;99.90;;;;;;5010851;28;20474;-73
2023/03/06 12:50:30;;;;;;;0.80;0.70;;;7.30;99.90;;;;;;5008912;28;20563;-74
2023/03/06 12:53:03;;;;;;;1.60;1.50;;;7.30;99.90;;;;;;5015515;28;20545;-74
2023/03/06 12:55:38;;;;;;;0.63;0.37;;;7.30;99.90;;;;;;5015654;28;20452;-76
2023/03/06 12:58:35;;;;;;;1.17;0.63;;;7.30;99.90;;;;;;5008263;28;20966;-76
2023/03/06 13:01:05;;;;;;;0.70;0.57;;;7.20;99.90;;;;;;5014823;28;21050;-76
2023/03/06 13:03:50;;;;;;;2.17;1.97;;;7.30;99.90;;;;;;5015594;28;20428;-75
2023/03/06 13:06:53;;;;;;;0.50;0.10;;;7.20;99.90;;;;;;5015880;28;20440;-76
2023/03/06 13:09:31;;;;;;;1.63;1.53;;;7.30;99.90;;;;;;4983913;28;20453;-74
2023/03/06 13:12:15;;;;;;;0.50;0.23;;;7.30;99.90;;;;;;5035261;28;20519;-72
2023/03/06 13:14:56;;;;;;;0.60;0.40;;;7.30;99.90;;;;;;5029213;28;20514;-76
2023/03/06 13:17:28;;;;;;;0.50;0.23;;;7.30;99.90;;;;;;5018050;28;20451;-77
2023/03/06 13:20:24;;;;;;;2.47;1.50;;;7.30;99.90;;;;;;5017201;28;20513;-73
2023/03/06 13:22:52;;;;;;;1.20;0.67;;;7.30;99.90;;;;;;5024438;28;21014;-76
2023/03/06 13:25:48;;;;;;;0.50;0.10;;;7.20;99.90;;;;;;5035985;28;20489;-76
2023/03/06 13:28:37;;;;;;;2.87;1.90;;;7.20;99.90;;;;;;5035529;28;20470;-74
2023/03/06 13:31:05;;;;;;;3.17;2.97;;;7.10;99.90;;;;;;5035120;28;20973;-76
2023/03/06 13:33:55;;;;;;;0.73;0.67;;;7.10;99.90;;;;;;5035338;28;20482;-75
2023/03/06 13:36:29;;;;;;;0.50;0.20;;;7.10;99.90;;;;;;5035957;28;20525;-76
2023/03/06 13:39:05;;;;;;;0.50;0.10;;;7.20;99.90;;;;;;5035151;28;20443;-76
2023/03/06 13:41:43;;;;;;;0.70;0.63;;;7.40;99.90;;;;;;5036261;28;20818;-76
2023/03/06 13:44:42;;;;;;;0.50;0.10;;;7.50;99.90;;;;;;5035557;28;20443;-76
2023/03/06 13:47:38;;;;;;;0.83;0.83;;;7.20;99.90;;;;;;5017389;28;20502;-71
2023/03/06 13:50:38;;;;;;;0.60;0.47;;;7.40;99.90;;;;;;5037055;28;20498;-72
2023/03/06 13:53:35;;;;;;;1.93;1.57;;;7.40;99.90;;;;;;5036769;28;20435;-73
2023/03/06 13:56:15;;;;;;;0.50;0.10;;;7.50;99.90;;;;;;5031762;28;20447;-74
2023/03/06 13:59:02;;;;;;;0.60;0.40;;;7.30;99.90;;;;;;5034946;28;20439;-73
2023/03/06 14:01:44;;;;;;;0.50;0.10;;;7.30;99.90;;;;;;5019339;28;20820;-73
2023/03/06 14:04:35;;;;;;;0.93;0.20;;;7.30;99.90;;;;;;5008019;28;20931;-74
2023/03/06 14:07:24;;;;;;;1.03;0.77;;;7.30;99.90;;;;;;5015104;28;20843;-73
2023/03/06 14:10:24;;;;;;;1.27;0.83;;;7.20;99.90;;;;;;5014667;28;20440;-73
2023/03/06 14:13:02;;;;;;;0.60;0.30;;;7.10;99.90;;;;;;5010084;28;20486;-73
2023/03/06 14:15:41;;;;;;;0.50;0.10;;;7.20;99.90;;;;;;5014604;28;20444;-74
2023/03/06 14:18:16;;;;;;;0.50;0.10;;;7.10;99.90;;;;;;5014542;28;20455;-72
2023/03/06 14:20:48;;;;;;;0.50;0.10;;;7.10;99.90;;;;;;5018848;28;20440;-73
2023/03/06 14:23:23;;;;;;;0.50;0.10;;;7.10;99.90;;;;;;5020646;28;20444;-74
2023/03/06 14:25:56;;;;;;;0.50;0.10;;;7.20;99.90;;;;;;5020000;28;20442;-72
2023/03/06 14:28:26;;;;;;;0.50;0.10;;;7.20;99.90;;;;;;5020266;28;20444;-73
2023/03/06 14:30:56;;;;;;;0.50;0.10;;;7.30;99.90;;;;;;5020737;28;20478;-72
2023/03/06 14:33:31;;;;;;;0.50;0.10;;;7.30;99.90;;;;;;5018353;28;20536;-74
2023/03/06 14:36:02;;;;;;;2.30;0.40;;;7.30;99.90;;;;;;5013870;28;20443;-73
2023/03/06 14:38:35;;;;;;;0.50;0.10;;;7.40;99.90;;;;;;5014234;28;20740;-72
2023/03/06 14:41:05;;;;;;;0.50;0.10;;;7.40;99.90;;;;;;5013498;28;20945;-74
2023/03/06 14:43:33;;;;;;;0.50;0.10;;;7.40;99.90;;;;;;5013389;28;20448;-74
2023/03/06 14:46:05;;;;;;;0.50;0.10;;;7.50;99.90;;;;;;5013426;28;20470;-73
2023/03/06 14:48:43;;;;;;;0.50;0.10;;;7.50;99.90;;;;;;5014297;28;20447;-72
2023/03/06 14:51:16;;;;;;;0.50;0.20;;;7.60;99.90;;;;;;5013916;28;20480;-73
2023/03/06 14:53:46;;;;;;;0.50;0.10;;;7.60;99.90;;;;;;5013377;28;20483;-73
2023/03/06 14:56:17;;;;;;;3.23;0.77;;;7.60;99.90;;;;;;5013081;28;20451;-73
2023/03/06 14:58:53;;;;;;;0.50;0.10;;;7.60;99.90;;;;;;5013555;28;20451;-74
2023/03/06 15:01:30;;;;;;;0.50;0.10;;;7.60;99.90;;;;;;5013114;28;20475;-72
2023/03/06 15:04:00;;;;;;;0.50;0.10;;;7.60;99.90;;;;;;5013120;28;20538;-73
2023/03/06 15:06:33;;;;;;;0.60;0.37;;;7.50;99.90;;;;;;5012552;28;20444;-73
2023/03/06 15:09:04;;;;;;;0.50;0.10;;;7.50;99.90;;;;;;5012028;28;20451;-73
2023/03/06 15:11:55;;;;;;;0.60;0.30;;;7.50;99.90;;;;;;5013221;28;20468;-73
2023/03/06 15:14:33;;;;;;;0.50;0.10;;;7.40;99.90;;;;;;5011717;28;20484;-73
2023/03/06 15:17:25;;;;;;;0.50;0.10;;;7.40;99.90;;;;;;5012155;28;20963;-73
2023/03/06 15:19:54;;;;;;;0.50;0.10;;;7.30;99.90;;;;;;5012575;28;20883;-72
2023/03/06 15:22:29;;;;;;;1.37;1.30;;;7.30;99.90;;;;;;5016685;28;20462;-72
2023/03/06 15:25:19;;;;;;;0.80;0.50;;;7.40;99.90;;;;;;5032472;28;20930;-79
2023/03/06 15:27:49;;;;;;;0.77;0.50;;;7.40;99.90;;;;;;5009595;28;21041;-76
2023/03/06 15:30:24;;;;;;;0.50;0.10;;;7.40;99.90;;;;;;5011646;28;20483;-76
2023/03/06 15:33:22;;;;;;;0.50;0.10;;;7.40;99.90;;;;;;5014824;28;20464;-75
2023/03/06 15:35:55;;;;;;;2.30;1.27;;;7.30;99.90;;;;;;5017797;28;20476;-74
2023/03/06 15:38:31;;;;;;;0.50;0.10;;;7.30;99.90;;;;;;5026523;28;20842;-76
2023/03/06 15:41:01;;;;;;;1.83;0.40;;;7.30;99.90;;;;;;5006109;28;20459;-77
2023/03/06 15:43:33;;;;;;;0.50;0.30;;;7.30;99.90;;;;;;5004874;28;20446;-77
2023/03/06 15:46:01;;;;;;;0.60;0.50;;;7.30;99.90;;;;;;5004357;28;20448;-76
2023/03/06 15:48:30;;;;;;;1.93;1.80;;;7.30;99.90;;;;;;5014468;28;20448;-77
2023/03/06 15:50:58;;;;;;;2.87;0.30;;;7.30;99.90;;;;;;5014595;28;20456;-74
2023/03/06 15:53:27;;;;;;;1.90;0.93;;;7.30;99.90;;;;;;5027010;28;20858;-76
2023/03/06 15:55:55;;;;;;;1.90;1.80;;;7.30;99.90;;;;;;5021979;28;20505;-75
2023/03/06 15:58:25;;;;;;;0.60;0.30;;;7.30;99.90;;;;;;5018859;28;20447;-75
2023/03/06 16:00:53;;;;;;;0.50;0.10;;;7.30;99.90;;;;;;5028807;28;20485;-76
2023/03/06 16:03:21;;;;;;;0.50;0.20;;;7.30;99.90;;;;;;5019223;28;20443;-75
2023/03/06 16:05:50;;;;;;;1.93;0.57;;;7.30;99.90;;;;;;5026083;28;20507;-75
2023/03/06 16:08:18;;;;;;;0.50;0.20;;;7.30;99.90;;;;;;5026885;28;20436;-77
2023/03/06 16:10:47;;;;;;;0.50;0.13;;;7.20;99.90;;;;;;5016684;28;20447;-76
2023/03/06 16:13:26;;;;;;;2.43;1.70;;;7.20;99.90;;;;;;5028014;28;20444;-75
2023/03/06 16:15:54;;;;;;;1.13;1.03;;;7.30;99.90;;;;;;5012334;28;20475;-77
2023/03/06 16:18:22;;;;;;;0.50;0.10;;;7.10;99.90;;;;;;5002080;28;20464;-76
2023/03/06 16:20:51;;;;;;;0.50;0.10;;;7.00;99.90;;;;;;5012226;28;20498;-76
2023/03/06 16:23:19;;;;;;;0.50;0.10;;;6.80;99.90;;;;;;5029610;28;20478;-78
2023/03/06 16:25:48;;;;;;;0.50;0.10;;;7.10;99.90;;;;;;5007602;28;20468;-77
2023/03/06 16:28:17;;;;;;;0.70;0.33;;;7.10;99.90;;;;;;5004270;28;20484;-77
2023/03/06 16:30:45;;;;;;;0.50;0.20;;;7.20;99.90;;;;;;5009682;28;20454;-76
2023/03/06 16:33:13;;;;;;;0.70;0.60;;;7.20;99.90;;;;;;5005127;28;21164;-75
2023/03/06 16:35:45;;;;;;;1.00;0.57;;;7.20;99.90;;;;;;5014904;28;20472;-76
2023/03/06 16:38:15;;;;;;;5.80;0.87;;;7.00;99.90;;;;;;5019680;28;20440;-76
2023/03/06 16:40:43;;;;;;;0.50;0.10;;;7.00;99.90;;;;;;5018107;28;20455;-76
2023/03/06 16:43:12;;;;;;;1.47;1.23;;;7.00;99.90;;;;;;5016214;28;20436;-75
2023/03/06 16:45:41;;;;;;;0.50;0.10;;;7.00;99.90;;;;;;5017980;28;20459;-76
2023/03/06 16:48:15;;;;;;;0.50;0.10;;;7.00;99.90;;;;;;5018452;28;20439;-77
2023/03/06 16:50:43;;;;;;;3.03;1.40;;;7.00;99.90;;;;;;5025255;28;20444;-75
2023/03/06 16:53:11;;;;;;;0.50;0.10;;;7.00;99.90;;;;;;5029411;28;20447;-75
2023/03/06 16:55:40;;;;;;;0.60;0.57;;;7.00;99.90;;;;;;5016914;28;20959;-75
2023/03/06 16:58:08;;;;;;;0.70;0.57;;;7.00;99.90;;;;;;5020711;28;20446;-77
2023/03/06 17:00:36;;;;;;;0.50;0.10;;;6.90;99.90;;;;;;5025669;28;20850;-75
2023/03/06 17:03:04;;;;;;;1.93;1.73;;;6.90;99.90;;;;;;5028379;28;20971;-76
2023/03/06 17:05:33;;;;;;;1.40;1.30;;;6.70;99.90;;;;;;5018176;28;20432;-74
2023/03/06 17:08:02;;;;;;;8.63;4.33;;;6.60;99.90;;;;;;5030896;28;20444;-76
2023/03/06 17:10:30;;;;;;;0.50;0.10;;;6.60;99.90;;;;;;5015341;28;20453;-76
2023/03/06 17:13:00;;;;;;;2.30;0.50;;;6.50;99.90;;;;;;5028151;28;20493;-75
2023/03/06 17:15:27;;;;;;;1.67;1.47;;;6.50;99.90;;;;;;5020350;28;20482;-75
2023/03/06 17:17:56;;;;;;;3.40;3.20;;;6.50;99.90;;;;;;5020019;28;20442;-74
2023/03/06 17:20:24;;;;;;;0.80;0.50;;;6.40;99.90;;;;;;5034201;28;20436;-75
2023/03/06 17:22:52;;;;;;;0.50;0.10;;;6.30;99.90;;;;;;5043763;28;20462;-72
2023/03/06 17:25:20;;;;;;;0.50;0.20;;;6.30;99.90;;;;;;5035167;28;20440;-74
2023/03/06 17:27:48;;;;;;;0.50;0.20;;;6.30;99.90;;;;;;5049782;28;20439;-74
2023/03/06 17:30:18;;;;;;;0.60;0.50;;;6.40;99.90;;;;;;5028006;28;20452;-75